EKSA weather

Sæby (Ottestrup) Airport
Sæby, North Jutland, Denmark

Public forecast

Using degrees Celsius for public forecast. Weather courtesy of forecast.io.

Closest aviation weather report (METAR) to Sæby (Ottestrup) Airport

Closest report is Sindal Airport, 11.0 nm (20.4 km) NNW. Retrieved 2019/10/23 08:50 UTC (23 minutes ago):

EKSN 230850Z 21014KT 9999 BKN038 12/08 Q1016

Closest aviation forecast (TAF) to Sæby (Ottestrup) Airport

Closest forecast is Aalborg Airport, 23.7 nm (43.9 km) SW. Retrieved 2019/10/23 09:31 UTC (0 seconds ago):

TAF EKYT 230828Z 2309/2409 23010KT 9999 BKN040 BECMG 2316/2319 18008KT TEMPO 2320/2324 7000 BECMG 2320/2323 13008KT TEMPO 2400/2409 3000 BR BKN006